Time;durP1;ratioP1;P1;durP2;ratioP2;P2;SDS_P1;SDS_P2;PMS_P1;PMS_P2;Temp;Humidity;BMP_temperature;BMP_pressure;BME280_temperature;BME280_humidity;BME280_pressure;Samples;Min_cycle;Max_cycle;Signal;HPM_P1;HPM_P2
2023/06/23 00:01:59;;;;;;;21.60;13.15;;;;;;;;;;5113345;28;20101;-80
2023/06/23 00:04:26;;;;;;;21.98;14.45;;;;;;;;;;5112095;28;20051;-80
2023/06/23 00:06:54;;;;;;;25.25;14.32;;;;;;;;;;5112111;28;20052;-80
2023/06/23 00:09:22;;;;;;;22.52;15.27;;;;;;;;;;5112957;28;20050;-80
2023/06/23 00:11:49;;;;;;;21.23;13.98;;;;;;;;;;5111892;28;20043;-80
2023/06/23 00:14:17;;;;;;;22.77;14.10;;;;;;;;;;5112004;28;20055;-80
2023/06/23 00:16:44;;;;;;;19.65;13.30;;;;;;;;;;5111742;28;20104;-80
2023/06/23 00:19:12;;;;;;;19.95;13.70;;;;;;;;;;5112091;28;20126;-80
2023/06/23 00:21:39;;;;;;;21.38;13.32;;;;;;;;;;5112954;28;20083;-80
2023/06/23 00:24:06;;;;;;;23.73;15.63;;;;;;;;;;5111742;28;20101;-80
2023/06/23 00:26:34;;;;;;;22.00;14.32;;;;;;;;;;5111628;28;20050;-80
2023/06/23 00:29:01;;;;;;;22.70;14.32;;;;;;;;;;5111622;28;20043;-81
2023/06/23 00:31:28;;;;;;;22.65;15.23;;;;;;;;;;5112640;28;20079;-80
2023/06/23 00:33:56;;;;;;;28.27;15.00;;;;;;;;;;5112183;28;20066;-81
2023/06/23 00:36:24;;;;;;;21.67;14.60;;;;;;;;;;5115661;28;20446;-81
2023/06/23 00:38:52;;;;;;;19.98;13.60;;;;;;;;;;5115262;28;20108;-81
2023/06/23 00:41:19;;;;;;;23.27;14.43;;;;;;;;;;5115392;28;20105;-81
2023/06/23 00:43:50;;;;;;;27.58;15.13;;;;;;;;;;5116348;28;20075;-81
2023/06/23 00:46:21;;;;;;;22.33;15.27;;;;;;;;;;5115483;28;20101;-81
2023/06/23 00:48:48;;;;;;;19.42;15.52;;;;;;;;;;5114928;28;20112;-81
2023/06/23 00:51:16;;;;;;;27.17;14.55;;;;;;;;;;5115142;28;20105;-81
2023/06/23 00:53:48;;;;;;;24.65;15.43;;;;;;;;;;5114991;28;20054;-79
2023/06/23 00:56:16;;;;;;;20.05;14.30;;;;;;;;;;5116299;28;20476;-80
2023/06/23 00:58:44;;;;;;;21.98;13.88;;;;;;;;;;5114881;28;20051;-79
2023/06/23 01:01:12;;;;;;;19.67;12.20;;;;;;;;;;5114926;28;20052;-80
2023/06/23 01:03:40;;;;;;;19.98;12.88;;;;;;;;;;5114840;28;20090;-80
2023/06/23 01:06:11;;;;;;;23.00;12.73;;;;;;;;;;5114886;28;20044;-80
2023/06/23 01:08:57;;;;;;;21.73;12.30;;;;;;;;;;5114704;28;20549;-80
2023/06/23 01:11:28;;;;;;;21.92;13.63;;;;;;;;;;5114702;28;20047;-79
2023/06/23 01:14:02;;;;;;;25.85;12.32;;;;;;;;;;5115957;28;20062;-79
2023/06/23 01:16:33;;;;;;;23.40;12.90;;;;;;;;;;5114687;28;20388;-79
2023/06/23 01:19:18;;;;;;;21.85;13.68;;;;;;;;;;5114644;28;20113;-80
2023/06/23 01:21:55;;;;;;;19.58;11.50;;;;;;;;;;5114345;28;20097;-80
2023/06/23 01:24:39;;;;;;;17.65;11.77;;;;;;;;;;5114347;28;20090;-80
2023/06/23 01:27:21;;;;;;;25.20;14.77;;;;;;;;;;5114370;28;20476;-80
2023/06/23 01:29:50;;;;;;;20.05;12.90;;;;;;;;;;5114205;28;20476;-80
2023/06/23 01:32:26;;;;;;;24.58;13.93;;;;;;;;;;5115320;28;20063;-79
2023/06/23 01:35:02;;;;;;;21.70;12.95;;;;;;;;;;5115468;28;20437;-80
2023/06/23 01:37:32;;;;;;;18.63;12.73;;;;;;;;;;5115778;28;20168;-79
2023/06/23 01:40:02;;;;;;;20.42;13.00;;;;;;;;;;5114033;28;20557;-79
2023/06/23 01:42:31;;;;;;;22.45;13.13;;;;;;;;;;5115280;28;20069;-79
2023/06/23 01:45:00;;;;;;;22.35;12.80;;;;;;;;;;5113915;28;20055;-79
2023/06/23 01:47:28;;;;;;;24.50;12.93;;;;;;;;;;5114087;28;20047;-79
2023/06/23 01:49:59;;;;;;;25.25;12.23;;;;;;;;;;5113976;28;20551;-80
2023/06/23 01:52:28;;;;;;;26.80;14.15;;;;;;;;;;5115164;28;20051;-79
2023/06/23 01:54:56;;;;;;;22.83;13.82;;;;;;;;;;5113946;28;20503;-79
2023/06/23 01:57:25;;;;;;;24.27;13.95;;;;;;;;;;5114880;28;20542;-80
2023/06/23 01:59:53;;;;;;;24.33;16.02;;;;;;;;;;5113688;28;20056;-79
2023/06/23 02:02:20;;;;;;;19.80;13.80;;;;;;;;;;5114656;28;20506;-79
2023/06/23 02:04:49;;;;;;;17.48;9.48;;;;;;;;;;5113336;28;20047;-81
2023/06/23 02:07:17;;;;;;;11.27;8.00;;;;;;;;;;5113397;28;20495;-81
2023/06/23 02:09:45;;;;;;;10.13;7.10;;;;;;;;;;5114418;28;20503;-81
2023/06/23 02:12:13;;;;;;;10.00;6.20;;;;;;;;;;5113420;28;20115;-80
2023/06/23 02:14:41;;;;;;;11.48;5.93;;;;;;;;;;5113256;28;20043;-80
2023/06/23 02:17:10;;;;;;;9.82;4.90;;;;;;;;;;5113362;28;20079;-80
2023/06/23 02:19:42;;;;;;;11.68;4.75;;;;;;;;;;5113171;28;20054;-80
2023/06/23 02:22:11;;;;;;;4.15;3.08;;;;;;;;;;5114197;28;20083;-80
2023/06/23 02:24:41;;;;;;;5.55;3.38;;;;;;;;;;5112948;28;20044;-81
2023/06/23 02:27:09;;;;;;;3.92;3.40;;;;;;;;;;5114041;28;20094;-81
2023/06/23 02:29:38;;;;;;;3.53;2.80;;;;;;;;;;5112774;28;20040;-80
2023/06/23 02:32:06;;;;;;;3.70;2.80;;;;;;;;;;5112550;28;20055;-82
2023/06/23 02:34:35;;;;;;;4.65;2.97;;;;;;;;;;5112855;28;20047;-81
2023/06/23 02:37:03;;;;;;;2.47;2.30;;;;;;;;;;5112814;28;20062;-80
2023/06/23 02:39:33;;;;;;;3.15;1.88;;;;;;;;;;5112758;28;20484;-81
2023/06/23 02:42:01;;;;;;;4.53;2.78;;;;;;;;;;5112619;28;20043;-81
2023/06/23 02:44:35;;;;;;;5.20;2.40;;;;;;;;;;5112761;28;20043;-81
2023/06/23 02:47:04;;;;;;;2.35;2.15;;;;;;;;;;5112474;28;20472;-81
2023/06/23 02:49:31;;;;;;;2.63;2.00;;;;;;;;;;5112536;28;20048;-81
2023/06/23 02:52:00;;;;;;;2.65;1.95;;;;;;;;;;5112631;28;20055;-82
2023/06/23 02:54:31;;;;;;;2.60;1.55;;;;;;;;;;5113666;28;20491;-82
2023/06/23 02:56:59;;;;;;;1.77;1.30;;;;;;;;;;5113207;28;20047;-82
2023/06/23 02:59:28;;;;;;;7.15;2.10;;;;;;;;;;5112669;28;20527;-83
2023/06/23 03:01:57;;;;;;;1.85;1.75;;;;;;;;;;5112323;28;20416;-82
2023/06/23 03:04:24;;;;;;;3.70;1.85;;;;;;;;;;5112344;28;20047;-82
2023/06/23 03:06:52;;;;;;;4.22;1.65;;;;;;;;;;5112238;28;20086;-82
2023/06/23 03:09:19;;;;;;;3.63;1.80;;;;;;;;;;5112227;28;20492;-83
2023/06/23 03:11:47;;;;;;;2.42;1.48;;;;;;;;;;5112170;28;20506;-82
2023/06/23 03:14:14;;;;;;;2.70;2.03;;;;;;;;;;5112308;28;20047;-83
2023/06/23 03:16:46;;;;;;;2.25;1.60;;;;;;;;;;5111987;28;20097;-82
2023/06/23 03:19:16;;;;;;;1.83;1.63;;;;;;;;;;5113278;28;20092;-82
2023/06/23 03:21:46;;;;;;;1.80;1.48;;;;;;;;;;5112052;28;20100;-82
2023/06/23 03:24:14;;;;;;;2.45;1.50;;;;;;;;;;5113282;28;20067;-82
2023/06/23 03:26:47;;;;;;;3.97;1.50;;;;;;;;;;5113451;28;20052;-82
2023/06/23 03:29:15;;;;;;;4.25;1.80;;;;;;;;;;5112123;28;20104;-82
2023/06/23 03:31:45;;;;;;;4.57;1.38;;;;;;;;;;5111815;28;20121;-82
2023/06/23 03:34:14;;;;;;;4.72;1.35;;;;;;;;;;5112386;28;20495;-79
2023/06/23 03:36:43;;;;;;;1.00;1.00;;;;;;;;;;5113169;28;20086;-82
2023/06/23 03:39:17;;;;;;;2.25;1.30;;;;;;;;;;5111966;28;20044;-82
2023/06/23 03:41:45;;;;;;;6.38;1.10;;;;;;;;;;5113158;28;20047;-82
2023/06/23 03:44:27;;;;;;;1.23;1.10;;;;;;;;;;5111745;28;20052;-83
2023/06/23 03:46:57;;;;;;;1.83;1.40;;;;;;;;;;5113097;28;20047;-86
2023/06/23 03:49:36;;;;;;;2.30;0.90;;;;;;;;;;5112074;28;20044;-82
2023/06/23 03:52:05;;;;;;;4.05;1.13;;;;;;;;;;5113029;28;20052;-84
2023/06/23 03:54:33;;;;;;;0.98;0.90;;;;;;;;;;5112123;28;20105;-82
2023/06/23 03:57:02;;;;;;;1.85;0.80;;;;;;;;;;5112073;28;20085;-83
2023/06/23 03:59:31;;;;;;;1.10;1.10;;;;;;;;;;5112965;28;20496;-83
2023/06/23 04:01:59;;;;;;;1.15;0.82;;;;;;;;;;5113121;28;20052;-83
2023/06/23 04:04:27;;;;;;;1.48;1.08;;;;;;;;;;5112089;28;20079;-83
2023/06/23 04:06:55;;;;;;;0.60;0.60;;;;;;;;;;5113230;28;20043;-83
2023/06/23 04:09:25;;;;;;;1.02;0.88;;;;;;;;;;5114376;28;20072;-88
2023/06/23 04:11:52;;;;;;;1.00;1.00;;;;;;;;;;5115981;28;20067;-84
2023/06/23 04:14:21;;;;;;;2.15;1.33;;;;;;;;;;5115903;28;20088;-84
2023/06/23 04:16:50;;;;;;;2.00;1.30;;;;;;;;;;5115929;28;20055;-87
2023/06/23 04:19:18;;;;;;;1.25;1.05;;;;;;;;;;5116103;28;20059;-87
2023/06/23 04:21:46;;;;;;;2.83;1.50;;;;;;;;;;5115779;28;20488;-86
2023/06/23 04:24:14;;;;;;;1.88;1.30;;;;;;;;;;5116137;28;20117;-86
2023/06/23 04:26:44;;;;;;;2.47;1.38;;;;;;;;;;5116161;28;20093;-92
2023/06/23 04:29:12;;;;;;;1.67;1.60;;;;;;;;;;5116165;28;20063;-88
2023/06/23 04:31:40;;;;;;;1.90;1.73;;;;;;;;;;5115477;28;20523;-91
2023/06/23 04:34:08;;;;;;;1.83;1.73;;;;;;;;;;5115994;28;20051;-85
2023/06/23 04:36:45;;;;;;;2.05;1.42;;;;;;;;;;5117316;28;20492;-88
2023/06/23 04:39:28;;;;;;;1.58;1.48;;;;;;;;;;5116064;28;20044;-82
2023/06/23 04:41:59;;;;;;;5.95;2.28;;;;;;;;;;5117171;28;20117;-83
2023/06/23 04:44:28;;;;;;;4.75;2.95;;;;;;;;;;5116118;28;20047;-86
2023/06/23 04:46:58;;;;;;;2.70;2.60;;;;;;;;;;5115549;28;20052;-86
2023/06/23 04:49:27;;;;;;;3.00;2.60;;;;;;;;;;5115442;28;20063;-81
2023/06/23 04:51:55;;;;;;;16.63;2.67;;;;;;;;;;5115318;28;20072;-86
2023/06/23 04:54:22;;;;;;;4.40;2.92;;;;;;;;;;5115303;28;20039;-84
2023/06/23 04:56:50;;;;;;;4.03;3.05;;;;;;;;;;5116334;28;20043;-82
2023/06/23 04:59:20;;;;;;;4.72;2.97;;;;;;;;;;5115265;28;20044;-85
2023/06/23 05:01:48;;;;;;;4.35;3.13;;;;;;;;;;5115180;28;20093;-83
2023/06/23 05:04:16;;;;;;;4.43;2.97;;;;;;;;;;5116326;28;20043;-85
2023/06/23 05:06:43;;;;;;;2.72;2.60;;;;;;;;;;5116019;28;20112;-88
2023/06/23 05:09:12;;;;;;;2.58;2.40;;;;;;;;;;5115241;28;20054;-86
2023/06/23 05:11:41;;;;;;;3.17;2.55;;;;;;;;;;5114709;28;20556;-83
2023/06/23 05:14:08;;;;;;;3.42;2.30;;;;;;;;;;5115452;28;20109;-85
2023/06/23 05:16:37;;;;;;;2.22;2.13;;;;;;;;;;5117443;28;20043;-83
2023/06/23 05:19:06;;;;;;;3.67;2.63;;;;;;;;;;5116582;28;20051;-86
2023/06/23 05:21:34;;;;;;;2.80;2.60;;;;;;;;;;5114703;28;20048;-85
2023/06/23 05:24:04;;;;;;;3.80;2.45;;;;;;;;;;5115088;28;20055;-84
2023/06/23 05:26:34;;;;;;;2.90;2.00;;;;;;;;;;5115552;28;20055;-84
2023/06/23 05:29:05;;;;;;;3.00;2.72;;;;;;;;;;5115137;28;20096;-87
2023/06/23 05:31:35;;;;;;;4.65;2.60;;;;;;;;;;5114903;28;20059;-88
2023/06/23 05:34:02;;;;;;;4.50;2.22;;;;;;;;;;5115152;28;20044;-86
2023/06/23 05:36:31;;;;;;;3.25;2.10;;;;;;;;;;5114952;28;20043;-85
2023/06/23 05:38:59;;;;;;;2.03;1.90;;;;;;;;;;5114719;28;20069;-88
2023/06/23 05:41:27;;;;;;;1.88;1.77;;;;;;;;;;5114718;28;20101;-88
2023/06/23 05:43:54;;;;;;;2.00;1.90;;;;;;;;;;5114776;28;20056;-85
2023/06/23 05:46:24;;;;;;;2.17;2.08;;;;;;;;;;5114692;28;20051;-86
2023/06/23 05:48:52;;;;;;;1.80;1.70;;;;;;;;;;5114210;28;20483;-85
2023/06/23 05:51:25;;;;;;;2.25;2.05;;;;;;;;;;5114307;28;20487;-84
2023/06/23 05:53:55;;;;;;;1.80;1.70;;;;;;;;;;5114366;28;20046;-84
2023/06/23 05:56:40;;;;;;;2.17;1.90;;;;;;;;;;5115466;28;20086;-86
2023/06/23 05:59:09;;;;;;;2.13;1.90;;;;;;;;;;5113739;28;20052;-85
2023/06/23 06:01:40;;;;;;;1.83;1.60;;;;;;;;;;5113605;28;20051;-84
2023/06/23 06:04:12;;;;;;;1.95;1.73;;;;;;;;;;5115231;28;20118;-84
2023/06/23 06:06:39;;;;;;;1.52;1.30;;;;;;;;;;5114782;28;20077;-84
2023/06/23 06:09:08;;;;;;;3.33;1.52;;;;;;;;;;5115027;28;20047;-82
2023/06/23 06:11:36;;;;;;;4.70;1.25;;;;;;;;;;5113683;28;20491;-84
2023/06/23 06:14:03;;;;;;;1.65;1.55;;;;;;;;;;5113391;28;20093;-83
2023/06/23 06:16:31;;;;;;;1.33;1.23;;;;;;;;;;5113402;28;20047;-83
2023/06/23 06:18:59;;;;;;;1.52;1.42;;;;;;;;;;5113265;28;20502;-83
2023/06/23 06:21:28;;;;;;;1.27;1.13;;;;;;;;;;5113397;28;20083;-84
2023/06/23 06:23:57;;;;;;;1.48;1.20;;;;;;;;;;5112986;28;20047;-83
2023/06/23 06:26:25;;;;;;;1.08;0.98;;;;;;;;;;5114369;28;20476;-83
2023/06/23 06:28:54;;;;;;;1.13;1.05;;;;;;;;;;5114360;28;20194;-82
2023/06/23 06:31:22;;;;;;;1.20;1.20;;;;;;;;;;5112376;28;20044;-83
2023/06/23 06:33:51;;;;;;;1.20;1.10;;;;;;;;;;5114074;28;20102;-82
2023/06/23 06:36:20;;;;;;;1.67;1.20;;;;;;;;;;5114166;27;20043;-84
2023/06/23 06:38:49;;;;;;;2.05;1.00;;;;;;;;;;5114004;28;20085;-82
2023/06/23 06:41:16;;;;;;;2.15;0.90;;;;;;;;;;5112887;28;20048;-83
2023/06/23 06:43:47;;;;;;;1.58;0.95;;;;;;;;;;5112563;28;20421;-82
2023/06/23 06:46:15;;;;;;;1.20;1.10;;;;;;;;;;5114126;28;20052;-83
2023/06/23 06:48:46;;;;;;;1.00;1.00;;;;;;;;;;5113773;28;20119;-82
2023/06/23 06:51:20;;;;;;;1.23;1.20;;;;;;;;;;5113885;28;20293;-83
2023/06/23 06:53:47;;;;;;;1.52;1.08;;;;;;;;;;5112798;28;20101;-85
2023/06/23 06:56:14;;;;;;;2.85;0.88;;;;;;;;;;5112610;28;20112;-83
2023/06/23 06:58:42;;;;;;;1.10;1.10;;;;;;;;;;5113792;28;20054;-82
2023/06/23 07:01:10;;;;;;;1.13;1.02;;;;;;;;;;5113737;28;20068;-84
2023/06/23 07:03:42;;;;;;;1.10;1.10;;;;;;;;;;5112531;28;20079;-82
2023/06/23 07:06:10;;;;;;;1.70;0.80;;;;;;;;;;5113895;28;20048;-82
2023/06/23 07:08:41;;;;;;;0.80;0.80;;;;;;;;;;5113972;28;20134;-85
2023/06/23 07:11:13;;;;;;;0.80;0.80;;;;;;;;;;5112904;28;20048;-84
2023/06/23 07:13:40;;;;;;;0.70;0.70;;;;;;;;;;5113531;28;20098;-81
2023/06/23 07:16:07;;;;;;;1.52;1.20;;;;;;;;;;5112330;28;20054;-83
2023/06/23 07:18:35;;;;;;;0.60;0.60;;;;;;;;;;5112325;28;20048;-84
2023/06/23 07:21:04;;;;;;;0.63;0.60;;;;;;;;;;5113531;28;20047;-82
2023/06/23 07:23:31;;;;;;;0.35;0.35;;;;;;;;;;5113547;28;20482;-85
2023/06/23 07:25:59;;;;;;;1.05;0.35;;;;;;;;;;5112492;28;20066;-83
2023/06/23 07:28:26;;;;;;;0.50;0.50;;;;;;;;;;5112266;28;20138;-83
2023/06/23 07:30:53;;;;;;;0.75;0.43;;;;;;;;;;5112169;28;20054;-82
2023/06/23 07:33:23;;;;;;;0.70;0.70;;;;;;;;;;5112419;28;20465;-83
2023/06/23 07:35:51;;;;;;;0.30;0.30;;;;;;;;;;5112313;28;20456;-83
2023/06/23 07:38:18;;;;;;;1.23;0.40;;;;;;;;;;5112068;28;20052;-83
2023/06/23 07:40:45;;;;;;;0.45;0.40;;;;;;;;;;5113192;28;20040;-83
2023/06/23 07:43:13;;;;;;;0.40;0.40;;;;;;;;;;5113186;28;20055;-86
2023/06/23 07:45:40;;;;;;;0.30;0.30;;;;;;;;;;5116255;28;20480;-83
2023/06/23 07:48:07;;;;;;;1.60;0.32;;;;;;;;;;5117460;27;20048;-82
2023/06/23 07:50:35;;;;;;;6.00;4.90;;;;;;;;;;5117368;27;20043;-83
2023/06/23 07:53:02;;;;;;;0.65;0.65;;;;;;;;;;5116118;28;20096;-81
2023/06/23 07:55:29;;;;;;;0.75;0.22;;;;;;;;;;5117383;28;20052;-84
2023/06/23 07:57:56;;;;;;;0.40;0.40;;;;;;;;;;5117076;28;20051;-83
2023/06/23 08:00:24;;;;;;;0.10;0.10;;;;;;;;;;5117470;28;20055;-82
2023/06/23 08:02:51;;;;;;;2.85;0.15;;;;;;;;;;5117062;28;20047;-83
2023/06/23 08:05:18;;;;;;;2.08;0.20;;;;;;;;;;5117143;28;20051;-83
2023/06/23 08:07:46;;;;;;;0.20;0.20;;;;;;;;;;5117068;28;20464;-82
2023/06/23 08:10:14;;;;;;;1.45;0.15;;;;;;;;;;5116372;28;20044;-82
2023/06/23 08:12:41;;;;;;;3.17;0.30;;;;;;;;;;5115731;28;20044;-87
2023/06/23 08:15:08;;;;;;;0.20;0.20;;;;;;;;;;5117038;28;20108;-82
2023/06/23 08:17:35;;;;;;;0.28;0.20;;;;;;;;;;5116959;28;20430;-84
2023/06/23 08:20:03;;;;;;;0.75;0.30;;;;;;;;;;5115712;28;20043;-83
2023/06/23 08:22:30;;;;;;;0.20;0.20;;;;;;;;;;5117007;28;20430;-84
2023/06/23 08:24:57;;;;;;;0.30;0.10;;;;;;;;;;5115789;28;20048;-84
2023/06/23 08:27:27;;;;;;;2.08;0.20;;;;;;;;;;5115934;28;20051;-83
2023/06/23 08:29:55;;;;;;;0.57;0.25;;;;;;;;;;5115735;28;20048;-88
2023/06/23 08:32:25;;;;;;;0.00;0.00;;;;;;;;;;5116680;28;20055;-85
2023/06/23 08:34:52;;;;;;;2.03;0.20;;;;;;;;;;5116913;28;20051;-90
2023/06/23 08:37:19;;;;;;;0.68;0.15;;;;;;;;;;5115616;28;20559;-84
2023/06/23 08:39:47;;;;;;;0.82;0.13;;;;;;;;;;5116634;27;20082;-83
2023/06/23 08:42:17;;;;;;;0.10;0.10;;;;;;;;;;5116342;28;20069;-83
2023/06/23 08:44:45;;;;;;;0.13;0.13;;;;;;;;;;5115302;28;20483;-83
2023/06/23 08:47:14;;;;;;;0.22;0.00;;;;;;;;;;5115959;28;20048;-84
2023/06/23 08:49:41;;;;;;;0.60;0.10;;;;;;;;;;5116729;28;20052;-83
2023/06/23 08:52:10;;;;;;;0.75;0.25;;;;;;;;;;5116509;28;20047;-82
2023/06/23 08:54:37;;;;;;;0.00;0.00;;;;;;;;;;5114565;28;20411;-83
2023/06/23 08:57:06;;;;;;;0.47;0.10;;;;;;;;;;5115425;28;20070;-84
2023/06/23 08:59:33;;;;;;;0.00;0.00;;;;;;;;;;5116344;28;20091;-83
2023/06/23 09:02:01;;;;;;;0.00;0.00;;;;;;;;;;5116572;28;20052;-82
2023/06/23 09:04:28;;;;;;;0.00;0.00;;;;;;;;;;5115693;28;20112;-83
2023/06/23 09:06:56;;;;;;;0.28;0.00;;;;;;;;;;5115194;28;20051;-84
2023/06/23 09:09:23;;;;;;;0.00;0.00;;;;;;;;;;5115485;28;20093;-86
2023/06/23 09:11:50;;;;;;;0.98;0.00;;;;;;;;;;5115241;28;20128;-84
2023/06/23 09:14:18;;;;;;;0.68;0.10;;;;;;;;;;5115165;28;20047;-84
2023/06/23 09:16:45;;;;;;;0.00;0.00;;;;;;;;;;5115142;28;20108;-85
2023/06/23 09:19:13;;;;;;;2.28;0.00;;;;;;;;;;5115209;28;20048;-86
2023/06/23 09:21:42;;;;;;;0.90;0.00;;;;;;;;;;5115205;28;20039;-85
2023/06/23 09:24:10;;;;;;;0.98;0.00;;;;;;;;;;5115141;28;20047;-83
2023/06/23 09:26:45;;;;;;;6.55;0.15;;;;;;;;;;5114906;28;20076;-84
2023/06/23 09:29:22;;;;;;;1.85;0.10;;;;;;;;;;5114822;28;20414;-84
2023/06/23 09:31:51;;;;;;;1.83;0.00;;;;;;;;;;5114382;28;20062;-84
2023/06/23 09:34:21;;;;;;;0.00;0.00;;;;;;;;;;5115943;28;20376;-82
2023/06/23 09:36:49;;;;;;;0.25;0.10;;;;;;;;;;5115762;28;20560;-84
2023/06/23 09:39:16;;;;;;;1.20;0.10;;;;;;;;;;5115645;28;20480;-84
2023/06/23 09:41:47;;;;;;;0.57;0.08;;;;;;;;;;5114764;28;20092;-86
2023/06/23 09:44:19;;;;;;;0.10;0.10;;;;;;;;;;5114685;28;20426;-87
2023/06/23 09:46:46;;;;;;;0.60;0.00;;;;;;;;;;5114488;28;20047;-83
2023/06/23 09:49:13;;;;;;;4.30;0.08;;;;;;;;;;5114373;28;20059;-83
2023/06/23 09:51:47;;;;;;;0.00;0.00;;;;;;;;;;5114707;28;20064;-83
2023/06/23 09:54:14;;;;;;;2.60;0.17;;;;;;;;;;5114170;28;20121;-84
2023/06/23 09:56:42;;;;;;;0.25;0.00;;;;;;;;;;5114338;28;20448;-85
2023/06/23 09:59:09;;;;;;;7.18;0.57;;;;;;;;;;5115293;28;20409;-82
2023/06/23 10:01:37;;;;;;;0.00;0.00;;;;;;;;;;5114872;28;20484;-83
2023/06/23 10:04:05;;;;;;;0.10;0.00;;;;;;;;;;5115353;28;20043;-84
2023/06/23 10:06:34;;;;;;;0.00;0.00;;;;;;;;;;5115222;28;20039;-87
2023/06/23 10:09:04;;;;;;;0.03;0.03;;;;;;;;;;5113982;28;20058;-82
2023/06/23 10:11:35;;;;;;;1.95;0.00;;;;;;;;;;5113788;28;20454;-82
2023/06/23 10:14:05;;;;;;;0.08;0.00;;;;;;;;;;5115287;28;20047;-82
2023/06/23 10:16:34;;;;;;;0.10;0.00;;;;;;;;;;5114800;28;20043;-84
2023/06/23 10:19:02;;;;;;;0.43;0.00;;;;;;;;;;5113764;28;20047;-82
2023/06/23 10:21:31;;;;;;;0.10;0.08;;;;;;;;;;5114586;28;20047;-82
2023/06/23 10:23:59;;;;;;;1.67;0.00;;;;;;;;;;5114719;28;20047;-83
2023/06/23 10:26:29;;;;;;;0.00;0.00;;;;;;;;;;5113672;28;20039;-83
2023/06/23 10:28:58;;;;;;;0.03;0.00;;;;;;;;;;5113452;28;20054;-83
2023/06/23 10:31:30;;;;;;;0.43;0.05;;;;;;;;;;5114314;28;20051;-87
2023/06/23 10:34:01;;;;;;;0.00;0.00;;;;;;;;;;5113608;28;20050;-85
2023/06/23 10:36:30;;;;;;;0.00;0.00;;;;;;;;;;5114437;28;20047;-83
2023/06/23 10:39:00;;;;;;;0.00;0.00;;;;;;;;;;5114678;28;20082;-83
2023/06/23 10:41:28;;;;;;;1.17;0.00;;;;;;;;;;5114178;28;20502;-83
2023/06/23 10:43:56;;;;;;;1.17;0.00;;;;;;;;;;5114263;28;20116;-83
2023/06/23 10:46:24;;;;;;;1.25;0.10;;;;;;;;;;5113211;28;20048;-83
2023/06/23 10:48:52;;;;;;;0.10;0.00;;;;;;;;;;5114334;28;20047;-83
2023/06/23 10:51:19;;;;;;;0.22;0.00;;;;;;;;;;5114236;28;20108;-84
2023/06/23 10:53:55;;;;;;;0.47;0.00;;;;;;;;;;5113134;28;20079;-83
2023/06/23 10:56:33;;;;;;;0.32;0.00;;;;;;;;;;5114316;28;20040;-86
2023/06/23 10:59:16;;;;;;;0.05;0.00;;;;;;;;;;5113523;28;20044;-83
2023/06/23 11:02:07;;;;;;;0.00;0.00;;;;;;;;;;5112904;28;20039;-84
2023/06/23 11:04:36;;;;;;;0.10;0.10;;;;;;;;;;5114331;28;20097;-84
2023/06/23 11:07:04;;;;;;;1.25;0.10;;;;;;;;;;5113255;28;20047;-83
2023/06/23 11:09:45;;;;;;;1.25;0.00;;;;;;;;;;5113986;28;20475;-84
2023/06/23 11:12:30;;;;;;;1.00;0.00;;;;;;;;;;5114291;28;20054;-84
2023/06/23 11:15:27;;;;;;;0.00;0.00;;;;;;;;;;5113214;28;20435;-82
2023/06/23 11:18:00;;;;;;;0.00;0.00;;;;;;;;;;5113205;28;20051;-85
2023/06/23 11:20:28;;;;;;;0.05;0.00;;;;;;;;;;5112838;28;20050;-84
2023/06/23 11:23:00;;;;;;;0.00;0.00;;;;;;;;;;5112990;28;20065;-84
2023/06/23 11:25:31;;;;;;;0.20;0.20;;;;;;;;;;5113237;28;20488;-83
2023/06/23 11:28:17;;;;;;;1.02;0.10;;;;;;;;;;5112860;28;20069;-86
2023/06/23 11:31:11;;;;;;;0.08;0.00;;;;;;;;;;5113901;28;20047;-84
2023/06/23 11:33:40;;;;;;;0.20;0.13;;;;;;;;;;5112859;28;20047;-86
2023/06/23 11:36:19;;;;;;;0.00;0.00;;;;;;;;;;5112913;28;20086;-86
2023/06/23 11:38:46;;;;;;;3.30;0.28;;;;;;;;;;5114013;28;20475;-85
2023/06/23 11:41:15;;;;;;;0.30;0.10;;;;;;;;;;5114038;28;20078;-84
2023/06/23 11:43:42;;;;;;;0.10;0.10;;;;;;;;;;5113110;28;20044;-84
2023/06/23 11:46:11;;;;;;;0.00;0.00;;;;;;;;;;5113027;28;20079;-87
2023/06/23 11:48:41;;;;;;;0.00;0.00;;;;;;;;;;5112897;28;20047;-85
2023/06/23 11:51:10;;;;;;;0.45;0.10;;;;;;;;;;5113105;28;20442;-85
2023/06/23 11:53:40;;;;;;;0.00;0.00;;;;;;;;;;5112916;28;20047;-85
2023/06/23 11:56:08;;;;;;;1.95;0.10;;;;;;;;;;5113212;28;20044;-88
2023/06/23 11:58:36;;;;;;;1.10;0.40;;;;;;;;;;5112991;28;20060;-87
2023/06/23 12:01:04;;;;;;;1.90;0.00;;;;;;;;;;5113054;28;20051;-88
2023/06/23 12:03:32;;;;;;;0.00;0.00;;;;;;;;;;5112822;28;20059;-87
2023/06/23 12:06:00;;;;;;;1.08;0.10;;;;;;;;;;5113043;28;20487;-85
2023/06/23 12:08:27;;;;;;;0.00;0.00;;;;;;;;;;5113146;28;20044;-87
2023/06/23 12:10:56;;;;;;;0.00;0.00;;;;;;;;;;5113491;28;20112;-88
2023/06/23 12:13:23;;;;;;;1.10;0.10;;;;;;;;;;5113025;28;20052;-88
2023/06/23 12:15:53;;;;;;;0.00;0.00;;;;;;;;;;5113018;28;20492;-85
2023/06/23 12:18:25;;;;;;;0.55;0.10;;;;;;;;;;5112978;28;20062;-87
2023/06/23 12:20:52;;;;;;;0.00;0.00;;;;;;;;;;5112919;28;20047;-85
2023/06/23 12:23:19;;;;;;;0.40;0.08;;;;;;;;;;5113520;28;20100;-86
2023/06/23 12:25:50;;;;;;;0.00;0.00;;;;;;;;;;5112583;28;20070;-83
2023/06/23 12:28:18;;;;;;;0.63;0.10;;;;;;;;;;5113943;28;20104;-84
2023/06/23 12:30:48;;;;;;;0.25;0.10;;;;;;;;;;5114380;28;20054;-85
2023/06/23 12:33:22;;;;;;;0.22;0.10;;;;;;;;;;5115894;28;20093;-85
2023/06/23 12:36:00;;;;;;;0.50;0.30;;;;;;;;;;5116128;28;20048;-85
2023/06/23 12:38:27;;;;;;;0.32;0.20;;;;;;;;;;5117223;28;20097;-91
2023/06/23 12:40:55;;;;;;;0.10;0.10;;;;;;;;;;5116394;28;20075;-84
2023/06/23 12:43:22;;;;;;;0.70;0.22;;;;;;;;;;5116933;28;20116;-86
2023/06/23 12:45:52;;;;;;;0.88;0.10;;;;;;;;;;5115880;28;20085;-83
2023/06/23 12:48:22;;;;;;;0.57;0.20;;;;;;;;;;5117008;28;20051;-85
2023/06/23 12:50:54;;;;;;;0.20;0.17;;;;;;;;;;5115533;28;20039;-85
2023/06/23 12:53:22;;;;;;;0.20;0.20;;;;;;;;;;5115827;28;20078;-85
2023/06/23 12:55:49;;;;;;;0.50;0.13;;;;;;;;;;5115697;28;20075;-84
2023/06/23 12:58:17;;;;;;;0.10;0.10;;;;;;;;;;5117089;28;20051;-86
2023/06/23 13:00:44;;;;;;;0.10;0.10;;;;;;;;;;5116929;28;20442;-84
2023/06/23 13:03:13;;;;;;;0.20;0.20;;;;;;;;;;5115713;28;20090;-89
2023/06/23 13:05:44;;;;;;;0.20;0.20;;;;;;;;;;5115812;28;20044;-85
2023/06/23 13:08:13;;;;;;;0.43;0.10;;;;;;;;;;5115455;28;20063;-86
2023/06/23 13:10:41;;;;;;;0.57;0.30;;;;;;;;;;5116920;28;20053;-86
2023/06/23 13:13:09;;;;;;;0.65;0.30;;;;;;;;;;5115697;28;20048;-86
2023/06/23 13:15:36;;;;;;;1.27;0.30;;;;;;;;;;5115602;28;20047;-87
2023/06/23 13:18:04;;;;;;;0.52;0.40;;;;;;;;;;5115624;28;20080;-86
2023/06/23 13:20:32;;;;;;;0.30;0.20;;;;;;;;;;5115572;28;20043;-86
2023/06/23 13:23:00;;;;;;;0.20;0.20;;;;;;;;;;5115786;28;20079;-86
2023/06/23 13:25:27;;;;;;;0.10;0.10;;;;;;;;;;5115551;28;20085;-86
2023/06/23 13:27:54;;;;;;;0.20;0.20;;;;;;;;;;5115484;28;20047;-86
2023/06/23 13:30:22;;;;;;;0.40;0.40;;;;;;;;;;5115384;28;20097;-87
2023/06/23 13:32:49;;;;;;;0.93;0.32;;;;;;;;;;5115125;28;20117;-86
2023/06/23 13:35:17;;;;;;;0.32;0.32;;;;;;;;;;5115403;28;20152;-86
2023/06/23 13:37:44;;;;;;;2.80;0.30;;;;;;;;;;5115289;28;20074;-86
2023/06/23 13:40:15;;;;;;;1.05;0.40;;;;;;;;;;5116431;28;20048;-87
2023/06/23 13:42:42;;;;;;;1.13;0.60;;;;;;;;;;5114830;28;20075;-88
2023/06/23 13:45:10;;;;;;;0.50;0.50;;;;;;;;;;5115164;28;20080;-87
2023/06/23 13:47:37;;;;;;;1.38;0.30;;;;;;;;;;5115031;28;20100;-86
2023/06/23 13:50:12;;;;;;;0.47;0.30;;;;;;;;;;5115370;28;20077;-86
2023/06/23 13:52:39;;;;;;;0.30;0.30;;;;;;;;;;5115212;28;20075;-86
2023/06/23 13:55:08;;;;;;;0.40;0.40;;;;;;;;;;5115200;28;20468;-86
2023/06/23 13:57:37;;;;;;;0.20;0.20;;;;;;;;;;5114762;28;20048;-87
2023/06/23 14:00:06;;;;;;;0.43;0.40;;;;;;;;;;5114902;28;20055;-86
2023/06/23 14:02:33;;;;;;;0.20;0.20;;;;;;;;;;5114643;28;20073;-87
2023/06/23 14:05:01;;;;;;;2.45;1.00;;;;;;;;;;5114729;28;20160;-87
2023/06/23 14:07:28;;;;;;;0.40;0.40;;;;;;;;;;5114779;28;20407;-87
2023/06/23 14:09:56;;;;;;;0.30;0.30;;;;;;;;;;5114654;28;20052;-89
2023/06/23 14:12:23;;;;;;;0.35;0.35;;;;;;;;;;5114460;28;20104;-85
2023/06/23 14:14:50;;;;;;;0.65;0.40;;;;;;;;;;5114570;28;20078;-86
2023/06/23 14:17:17;;;;;;;1.27;0.40;;;;;;;;;;5114681;28;20047;-87
2023/06/23 14:19:45;;;;;;;0.57;0.57;;;;;;;;;;5114336;28;20059;-85
2023/06/23 14:22:13;;;;;;;0.47;0.47;;;;;;;;;;5114716;28;20047;-86
2023/06/23 14:24:40;;;;;;;0.40;0.40;;;;;;;;;;5113832;28;20120;-86
2023/06/23 14:27:08;;;;;;;0.40;0.40;;;;;;;;;;5114133;28;20086;-84
2023/06/23 14:29:35;;;;;;;1.48;0.60;;;;;;;;;;5113891;28;20100;-86
2023/06/23 14:32:03;;;;;;;1.35;0.63;;;;;;;;;;5113983;28;20063;-84
2023/06/23 14:34:30;;;;;;;3.30;0.77;;;;;;;;;;5113789;28;20052;-87
2023/06/23 14:36:57;;;;;;;1.27;0.60;;;;;;;;;;5113544;28;20082;-84
2023/06/23 14:39:24;;;;;;;0.52;0.50;;;;;;;;;;5113615;28;20560;-84
2023/06/23 14:41:52;;;;;;;0.57;0.57;;;;;;;;;;5113317;28;20071;-82
2023/06/23 14:44:19;;;;;;;0.60;0.60;;;;;;;;;;5114060;28;20075;-88
2023/06/23 14:46:46;;;;;;;1.15;0.60;;;;;;;;;;5113045;28;20078;-89
2023/06/23 14:49:13;;;;;;;0.75;0.75;;;;;;;;;;5113077;28;20051;-82
2023/06/23 14:51:41;;;;;;;0.77;0.70;;;;;;;;;;5113198;28;20043;-82